Time;durP1;ratioP1;P1;durP2;ratioP2;P2;SDS_P1;SDS_P2;PMS_P1;PMS_P2;Temp;Humidity;BMP_temperature;BMP_pressure;BME280_temperature;BME280_humidity;BME280_pressure;Samples;Min_cycle;Max_cycle;Signal;HPM_P1;HPM_P2
2021/09/01 00:01:32;;;;;;;3.85;2.20;;;460.90;2380.80;;;;;;6306342;22;20007;-65
2021/09/01 00:03:58;;;;;;;3.22;2.30;;;460.80;2380.80;;;;;;6305803;22;20003;-65
2021/09/01 00:06:23;;;;;;;3.15;2.45;;;460.80;2380.80;;;;;;6305841;22;20086;-64
2021/09/01 00:08:51;;;;;;;3.28;2.28;;;460.80;2380.80;;;;;;6278209;22;20006;-64
2021/09/01 00:11:18;;;;;;;4.15;2.38;;;460.80;2380.80;;;;;;6305863;22;19995;-65
2021/09/01 00:13:44;;;;;;;3.95;2.60;;;460.80;2380.80;;;;;;6306190;22;20049;-66
2021/09/01 00:16:26;;;;;;;3.67;2.45;;;460.80;2380.80;;;;;;6306082;22;19999;-65
2021/09/01 00:19:04;;;;;;;3.72;2.42;;;460.80;2380.80;;;;;;6305576;22;20045;-64
2021/09/01 00:21:31;;;;;;;3.50;2.33;;;460.80;2380.80;;;;;;6305925;22;20043;-64
2021/09/01 00:23:58;;;;;;;3.85;2.30;;;460.80;2380.80;;;;;;6306039;22;20023;-65
2021/09/01 00:26:24;;;;;;;3.13;2.17;;;436.00;2355.20;;;;;;6305838;22;20007;-65
2021/09/01 00:28:50;;;;;;;3.13;2.60;;;436.00;2355.20;;;;;;6305919;22;20006;-63
2021/09/01 00:31:18;;;;;;;3.85;2.80;;;435.90;2355.20;;;;;;6305722;22;20007;-65
2021/09/01 00:33:44;;;;;;;4.28;2.80;;;435.80;2355.20;;;;;;6305492;22;20360;-65
2021/09/01 00:36:10;;;;;;;4.43;2.50;;;435.70;2355.20;;;;;;6277704;22;20081;-65
2021/09/01 00:38:36;;;;;;;3.88;2.50;;;435.70;2355.20;;;;;;6277889;22;19999;-64
2021/09/01 00:41:02;;;;;;;4.55;2.60;;;435.70;2355.20;;;;;;6307240;22;20011;-64
2021/09/01 00:43:28;;;;;;;3.28;2.50;;;435.50;2355.20;;;;;;6278321;22;20438;-65
2021/09/01 00:45:54;;;;;;;3.63;2.60;;;435.70;2355.20;;;;;;6306039;22;19999;-64
2021/09/01 00:48:21;;;;;;;3.17;2.35;;;435.70;2355.20;;;;;;6305692;22;19999;-64
2021/09/01 00:50:48;;;;;;;4.68;2.67;;;435.50;2355.20;;;;;;6278474;22;20000;-64
2021/09/01 00:53:14;;;;;;;4.10;2.55;;;435.60;2355.20;;;;;;6306882;22;20003;-64
2021/09/01 00:55:45;;;;;;;3.55;2.50;;;435.40;2355.20;;;;;;6306786;22;20019;-64
2021/09/01 00:58:12;;;;;;;3.33;2.58;;;435.40;2355.20;;;;;;6306504;22;20003;-64
2021/09/01 01:03:22;;;;;;;4.85;2.60;;;435.20;2355.20;;;;;;6306714;22;20010;-65
2021/09/01 01:05:48;;;;;;;3.78;2.70;;;410.50;2355.20;;;;;;6307135;22;20004;-61
2021/09/01 01:08:14;;;;;;;5.20;2.75;;;410.50;2355.20;;;;;;6278834;22;20456;-62
2021/09/01 01:10:41;;;;;;;3.83;2.90;;;410.40;2355.20;;;;;;6305542;22;20015;-62
2021/09/01 01:13:08;;;;;;;4.30;2.80;;;410.40;2355.20;;;;;;6306982;22;20004;-62
2021/09/01 01:15:37;;;;;;;4.05;2.78;;;410.40;2355.20;;;;;;6306816;22;20003;-61
2021/09/01 01:18:05;;;;;;;4.45;2.67;;;410.30;2355.20;;;;;;6306402;22;20010;-63
2021/09/01 01:20:32;;;;;;;3.90;2.50;;;410.20;2355.20;;;;;;6308274;22;20025;-62
2021/09/01 01:22:58;;;;;;;3.95;2.55;;;410.20;2355.20;;;;;;6308557;22;20003;-63
2021/09/01 01:25:42;;;;;;;3.80;2.83;;;410.20;2355.20;;;;;;6308788;22;20003;-62
2021/09/01 01:28:09;;;;;;;3.72;2.58;;;410.30;2355.20;;;;;;6308027;22;20003;-62
2021/09/01 01:30:36;;;;;;;5.00;2.97;;;410.30;2355.20;;;;;;6308447;22;20030;-63
2021/09/01 01:33:04;;;;;;;5.53;3.00;;;410.20;2355.20;;;;;;6307889;22;20032;-64
2021/09/01 01:35:29;;;;;;;4.82;2.90;;;410.30;2355.20;;;;;;6308239;22;20011;-63
2021/09/01 01:37:57;;;;;;;4.38;3.05;;;410.20;2355.20;;;;;;6308154;22;20370;-62
2021/09/01 01:40:23;;;;;;;3.80;2.97;;;410.20;2355.20;;;;;;6308218;22;20015;-62
2021/09/01 01:42:51;;;;;;;4.75;3.20;;;410.20;2355.20;;;;;;6308424;22;20049;-62
2021/09/01 01:45:17;;;;;;;4.30;3.08;;;410.30;2355.20;;;;;;6308329;22;20074;-62
2021/09/01 01:47:43;;;;;;;6.70;2.90;;;410.20;2355.20;;;;;;6308545;22;20080;-62
2021/09/01 01:50:09;;;;;;;6.15;2.95;;;410.20;2355.20;;;;;;6308288;22;20469;-62
2021/09/01 01:52:36;;;;;;;4.07;2.90;;;410.20;2355.20;;;;;;6307934;22;20080;-63
2021/09/01 01:55:02;;;;;;;3.90;2.88;;;410.20;2355.20;;;;;;6308270;22;19999;-63
2021/09/01 01:57:28;;;;;;;4.10;2.92;;;410.20;2355.20;;;;;;6308029;22;20078;-62
2021/09/01 01:59:54;;;;;;;3.50;2.72;;;410.20;2355.20;;;;;;6308593;22;20047;-63
2021/09/01 02:02:19;;;;;;;3.75;2.95;;;410.20;2355.20;;;;;;6309408;22;20356;-62
2021/09/01 02:04:45;;;;;;;5.65;3.10;;;410.20;2355.20;;;;;;6308951;22;20056;-62
2021/09/01 02:07:11;;;;;;;4.82;3.25;;;410.20;2355.20;;;;;;6309577;22;19996;-62
2021/09/01 02:09:37;;;;;;;3.78;2.88;;;410.10;2355.20;;;;;;6309385;22;20328;-62
2021/09/01 02:12:02;;;;;;;4.18;3.22;;;410.00;2355.20;;;;;;6309217;22;20014;-62
2021/09/01 02:14:28;;;;;;;5.13;3.10;;;409.90;2355.20;;;;;;6281907;22;20030;-62
2021/09/01 02:16:54;;;;;;;5.47;3.05;;;410.00;2355.20;;;;;;6309345;22;20306;-62
2021/09/01 02:19:19;;;;;;;7.63;3.30;;;409.90;2355.20;;;;;;6281911;22;20041;-62
2021/09/01 02:21:45;;;;;;;4.03;3.10;;;409.80;2355.20;;;;;;6309557;22;20052;-62
2021/09/01 02:24:11;;;;;;;4.85;2.90;;;409.80;2355.20;;;;;;6309556;22;19999;-62
2021/09/01 02:26:37;;;;;;;5.07;3.08;;;409.80;2355.20;;;;;;6309496;22;20001;-62
2021/09/01 02:29:02;;;;;;;4.40;3.30;;;409.80;2355.20;;;;;;6309126;22;20353;-62
2021/09/01 02:31:28;;;;;;;5.25;3.30;;;409.80;2355.20;;;;;;6309060;22;20002;-62
2021/09/01 02:33:54;;;;;;;4.80;3.22;;;409.80;2355.20;;;;;;6309258;22;20015;-62
2021/09/01 02:36:20;;;;;;;4.15;3.03;;;409.70;2355.20;;;;;;6309110;22;20003;-63
2021/09/01 02:38:46;;;;;;;4.75;3.40;;;409.80;2355.20;;;;;;6308474;22;20006;-62
2021/09/01 02:41:12;;;;;;;6.97;3.38;;;409.80;2355.20;;;;;;6309358;22;20034;-62
2021/09/01 02:43:38;;;;;;;3.95;3.28;;;409.70;2355.20;;;;;;6309088;22;19999;-62
2021/09/01 02:46:04;;;;;;;4.50;3.40;;;409.70;2355.20;;;;;;6309350;22;20074;-62
2021/09/01 02:48:30;;;;;;;5.03;3.03;;;409.70;2355.20;;;;;;6308752;22;20440;-62
2021/09/01 02:50:56;;;;;;;4.60;3.17;;;409.70;2355.20;;;;;;6308912;22;20006;-63
2021/09/01 02:53:23;;;;;;;4.68;3.20;;;409.70;2355.20;;;;;;6309165;22;19995;-62
2021/09/01 02:55:49;;;;;;;5.30;3.38;;;409.70;2355.20;;;;;;6309154;22;20014;-62
2021/09/01 02:58:16;;;;;;;5.78;3.20;;;409.80;2355.20;;;;;;6308974;22;19995;-62
2021/09/01 03:00:42;;;;;;;6.05;3.33;;;409.80;2355.20;;;;;;6308739;22;20046;-63
2021/09/01 03:03:08;;;;;;;4.68;3.10;;;409.70;2355.20;;;;;;6308761;22;19996;-62
2021/09/01 03:05:33;;;;;;;5.45;3.45;;;409.70;2355.20;;;;;;6280472;22;20056;-62
2021/09/01 03:07:59;;;;;;;5.55;3.30;;;409.80;2355.20;;;;;;6308875;22;20037;-62
2021/09/01 03:10:25;;;;;;;5.10;3.20;;;409.70;2355.20;;;;;;6308833;22;20048;-64
2021/09/01 03:12:51;;;;;;;4.75;3.25;;;409.80;2355.20;;;;;;6308703;22;20007;-62
2021/09/01 03:15:16;;;;;;;4.95;3.20;;;409.80;2355.20;;;;;;6308562;22;20078;-63
2021/09/01 03:17:42;;;;;;;5.25;2.92;;;409.90;2355.20;;;;;;6309062;22;20007;-62
2021/09/01 03:20:09;;;;;;;5.35;3.40;;;409.90;2355.20;;;;;;6308285;22;20445;-63
2021/09/01 03:22:34;;;;;;;4.97;3.55;;;409.90;2355.20;;;;;;6308524;22;20027;-63
2021/09/01 03:25:00;;;;;;;5.22;3.42;;;409.90;2355.20;;;;;;6307273;22;20010;-62
2021/09/01 03:27:26;;;;;;;4.47;3.15;;;409.90;2355.20;;;;;;6280792;22;20004;-63
2021/09/01 03:29:51;;;;;;;4.25;3.03;;;409.90;2355.20;;;;;;6280903;22;20034;-63
2021/09/01 03:32:17;;;;;;;6.72;3.35;;;409.90;2355.20;;;;;;6308661;22;20437;-63
2021/09/01 03:34:43;;;;;;;4.90;3.35;;;409.90;2355.20;;;;;;6308219;22;20098;-63
2021/09/01 03:37:09;;;;;;;4.57;3.40;;;409.90;2355.20;;;;;;6308679;22;20058;-63
2021/09/01 03:39:34;;;;;;;5.38;3.45;;;409.90;2355.20;;;;;;6308624;22;20000;-62
2021/09/01 03:42:00;;;;;;;4.57;3.28;;;409.90;2355.20;;;;;;6308747;22;20003;-63
2021/09/01 03:44:26;;;;;;;5.28;3.25;;;409.90;2355.20;;;;;;6308233;22;20051;-63
2021/09/01 03:46:51;;;;;;;4.95;3.50;;;409.90;2355.20;;;;;;6308400;22;20003;-63
2021/09/01 03:49:17;;;;;;;4.63;3.13;;;409.80;2355.20;;;;;;6308359;22;20049;-62
2021/09/01 03:51:47;;;;;;;5.57;3.50;;;409.80;2355.20;;;;;;6308703;22;20090;-63
2021/09/01 03:54:14;;;;;;;5.30;3.80;;;409.70;2355.20;;;;;;6308713;22;20076;-63
2021/09/01 03:56:39;;;;;;;5.18;3.40;;;409.60;2355.20;;;;;;6280900;22;20003;-62
2021/09/01 03:59:06;;;;;;;4.68;3.47;;;409.60;2355.20;;;;;;6308177;22;20078;-62
2021/09/01 04:01:33;;;;;;;7.88;3.35;;;409.70;2355.20;;;;;;6308694;22;20018;-62
2021/09/01 04:04:01;;;;;;;6.82;3.50;;;409.80;2355.20;;;;;;6308597;22;20006;-62
2021/09/01 04:06:27;;;;;;;5.05;3.50;;;409.70;2355.20;;;;;;6308198;22;20436;-63
2021/09/01 04:08:53;;;;;;;4.90;3.05;;;409.80;2355.20;;;;;;6308404;22;20000;-63
2021/09/01 04:11:18;;;;;;;6.50;3.55;;;409.80;2355.20;;;;;;6308136;22;20438;-63
2021/09/01 04:13:44;;;;;;;4.22;3.30;;;409.90;2355.20;;;;;;6308474;22;20003;-62
2021/09/01 04:16:10;;;;;;;6.80;3.17;;;409.70;2355.20;;;;;;6308242;22;20058;-62
2021/09/01 04:18:35;;;;;;;6.80;3.70;;;409.80;2355.20;;;;;;6308104;22;20447;-63
2021/09/01 04:21:01;;;;;;;4.70;3.42;;;409.90;2355.20;;;;;;6308335;22;20090;-63
2021/09/01 04:23:27;;;;;;;5.25;3.42;;;409.90;2355.20;;;;;;6280690;22;19995;-63
2021/09/01 04:25:53;;;;;;;6.63;3.20;;;409.90;2355.20;;;;;;6308445;22;20011;-62
2021/09/01 04:28:19;;;;;;;6.20;3.50;;;410.00;2355.20;;;;;;6308089;22;20309;-62
2021/09/01 04:30:44;;;;;;;4.95;3.22;;;409.90;2355.20;;;;;;6307522;22;20104;-63
2021/09/01 04:33:10;;;;;;;4.57;3.10;;;410.00;2355.20;;;;;;6307935;22;20010;-62
2021/09/01 04:35:37;;;;;;;4.75;3.28;;;409.90;2355.20;;;;;;6308493;22;19999;-62
2021/09/01 04:38:03;;;;;;;6.97;3.50;;;410.00;2355.20;;;;;;6308366;22;19999;-62
2021/09/01 04:40:29;;;;;;;6.63;3.20;;;409.90;2355.20;;;;;;6308189;22;20014;-63
2021/09/01 04:42:54;;;;;;;5.97;3.22;;;409.90;2355.20;;;;;;6308043;22;20322;-63
2021/09/01 04:45:20;;;;;;;5.25;3.40;;;409.90;2355.20;;;;;;6307695;22;19999;-62
2021/09/01 04:47:46;;;;;;;5.82;3.30;;;410.00;2355.20;;;;;;6308336;22;20003;-62
2021/09/01 04:50:12;;;;;;;5.43;3.38;;;410.10;2355.20;;;;;;6308227;22;20007;-62
2021/09/01 04:52:38;;;;;;;7.47;3.25;;;410.10;2355.20;;;;;;6308296;22;19995;-63
2021/09/01 04:55:04;;;;;;;6.90;3.53;;;410.10;2355.20;;;;;;6308843;22;19999;-63
2021/09/01 04:57:30;;;;;;;4.75;3.50;;;410.20;2355.20;;;;;;6309381;22;19999;-62
2021/09/01 04:59:56;;;;;;;6.30;4.13;;;410.20;2355.20;;;;;;6309452;22;20490;-63
2021/09/01 05:02:22;;;;;;;5.10;4.00;;;410.20;2355.20;;;;;;6310040;22;20444;-63
2021/09/01 05:04:48;;;;;;;7.03;3.75;;;410.20;2355.20;;;;;;6282637;22;20003;-63
2021/09/01 05:07:14;;;;;;;5.22;3.72;;;410.20;2355.20;;;;;;6309764;22;19995;-62
2021/09/01 05:09:39;;;;;;;4.97;3.80;;;410.20;2355.20;;;;;;6309894;22;20009;-62
2021/09/01 05:12:05;;;;;;;5.63;3.90;;;410.20;2355.20;;;;;;6309301;22;19999;-62
2021/09/01 05:14:32;;;;;;;5.95;3.70;;;410.30;2355.20;;;;;;6309547;22;19999;-64
2021/09/01 05:16:58;;;;;;;6.97;3.72;;;410.30;2355.20;;;;;;6310166;22;20006;-62
2021/09/01 05:19:24;;;;;;;5.57;3.95;;;410.40;2355.20;;;;;;6309601;22;20337;-63
2021/09/01 05:21:53;;;;;;;8.25;4.00;;;410.40;2355.20;;;;;;6310080;22;20004;-63
2021/09/01 05:24:29;;;;;;;6.85;4.03;;;410.50;2355.20;;;;;;6310045;22;20003;-68
2021/09/01 05:27:08;;;;;;;4.90;3.75;;;435.30;2355.20;;;;;;6309598;22;19999;-63
2021/09/01 05:29:43;;;;;;;4.70;3.35;;;435.30;2355.20;;;;;;6308372;22;20087;-65
2021/09/01 05:32:19;;;;;;;5.82;3.90;;;435.40;2355.20;;;;;;6303451;22;20455;-62
2021/09/01 05:34:47;;;;;;;5.53;3.30;;;435.60;2355.20;;;;;;6309185;22;20019;-63
2021/09/01 05:37:13;;;;;;;5.75;3.45;;;435.70;2355.20;;;;;;6309406;22;20007;-62
2021/09/01 05:39:51;;;;;;;5.30;3.70;;;435.70;2355.20;;;;;;6309010;22;20007;-64
2021/09/01 05:42:20;;;;;;;4.97;3.50;;;435.80;2355.20;;;;;;6308855;22;20309;-62
2021/09/01 05:44:46;;;;;;;7.30;3.75;;;435.90;2355.20;;;;;;6309579;22;20022;-63
2021/09/01 05:47:13;;;;;;;6.22;3.78;;;435.90;2355.20;;;;;;6309164;22;20010;-62
2021/09/01 05:49:43;;;;;;;6.43;3.45;;;436.00;2355.20;;;;;;6308709;22;19996;-63
2021/09/01 05:52:09;;;;;;;6.15;4.25;;;436.00;2355.20;;;;;;6309395;22;20057;-63
2021/09/01 05:54:35;;;;;;;5.60;3.92;;;436.10;2355.20;;;;;;6308406;22;20317;-59
2021/09/01 05:57:08;;;;;;;6.55;4.15;;;460.80;2380.80;;;;;;6302377;22;20033;-60
2021/09/01 05:59:48;;;;;;;5.28;3.80;;;460.80;2380.80;;;;;;6306874;22;20030;-59
2021/09/01 06:02:20;;;;;;;7.38;3.97;;;461.00;2380.80;;;;;;6306178;22;20662;-59
2021/09/01 06:04:46;;;;;;;6.65;4.20;;;461.00;2380.80;;;;;;6307601;22;19999;-59
2021/09/01 06:07:18;;;;;;;6.03;3.60;;;461.20;2380.80;;;;;;6305525;22;20003;-59
2021/09/01 06:09:46;;;;;;;5.32;3.90;;;461.30;2380.80;;;;;;6306377;22;20029;-58
2021/09/01 06:12:15;;;;;;;9.80;4.05;;;461.40;2380.80;;;;;;6305644;22;20061;-59
2021/09/01 06:14:41;;;;;;;6.85;4.28;;;461.60;2380.80;;;;;;6279322;22;20030;-59
2021/09/01 06:17:07;;;;;;;8.20;3.90;;;486.40;2380.80;;;;;;6305771;22;20006;-59
2021/09/01 06:19:33;;;;;;;5.20;3.83;;;486.60;2380.80;;;;;;6307279;22;20034;-58
2021/09/01 06:21:59;;;;;;;4.80;3.80;;;486.70;2380.80;;;;;;6305924;22;19999;-58
2021/09/01 06:24:25;;;;;;;7.03;3.83;;;486.80;2380.80;;;;;;6306400;22;19999;-61
2021/09/01 06:26:50;;;;;;;6.78;3.92;;;487.00;2380.80;;;;;;6306792;22;20003;-59
2021/09/01 06:29:16;;;;;;;6.38;3.97;;;487.10;2380.80;;;;;;6305778;22;20004;-59
2021/09/01 06:31:42;;;;;;;6.10;3.72;;;512.00;2380.80;;;;;;6306314;22;19999;-61
2021/09/01 06:34:07;;;;;;;7.82;4.20;;;512.30;2380.80;;;;;;6305850;22;20007;-58
2021/09/01 06:36:33;;;;;;;5.10;3.67;;;512.60;2380.80;;;;;;6306642;22;20352;-58
2021/09/01 06:38:59;;;;;;;4.90;3.80;;;512.80;2380.80;;;;;;6277334;22;20082;-59
2021/09/01 06:41:25;;;;;;;5.72;4.00;;;537.60;2406.40;;;;;;6306558;22;20086;-59
2021/09/01 06:43:50;;;;;;;7.70;4.03;;;537.70;2406.40;;;;;;6306916;22;20049;-58
2021/09/01 06:46:16;;;;;;;7.03;4.47;;;537.70;2406.40;;;;;;6302869;22;20007;-60
2021/09/01 06:48:42;;;;;;;5.78;3.88;;;537.70;2406.40;;;;;;6307119;22;20082;-59
2021/09/01 06:51:07;;;;;;;5.32;4.10;;;537.90;2406.40;;;;;;6305492;22;20007;-59
2021/09/01 06:53:33;;;;;;;4.82;4.10;;;537.80;2406.40;;;;;;6306456;22;20010;-59
2021/09/01 06:56:00;;;;;;;6.00;4.40;;;537.90;2406.40;;;;;;6304842;22;20083;-59
2021/09/01 06:58:25;;;;;;;8.05;4.20;;;537.90;2406.40;;;;;;6305198;22;20002;-60
2021/09/01 07:00:51;;;;;;;6.60;4.20;;;537.70;2406.40;;;;;;6306506;22;20007;-60
2021/09/01 07:03:17;;;;;;;7.55;4.25;;;537.90;2406.40;;;;;;6278482;22;20010;-59
2021/09/01 07:05:43;;;;;;;5.38;3.90;;;538.00;2406.40;;;;;;6306488;22;19999;-59
2021/09/01 07:08:16;;;;;;;6.80;4.30;;;538.20;2406.40;;;;;;6300679;22;20712;-60
2021/09/01 07:10:44;;;;;;;6.90;4.32;;;538.40;2406.40;;;;;;6305995;22;20007;-59
2021/09/01 07:13:12;;;;;;;8.55;4.78;;;538.40;2406.40;;;;;;6277711;22;20354;-59
2021/09/01 07:15:38;;;;;;;5.85;3.90;;;538.40;2406.40;;;;;;6277441;22;19999;-59
2021/09/01 07:18:04;;;;;;;6.22;4.70;;;563.30;2406.40;;;;;;6304907;22;20376;-59
2021/09/01 07:20:30;;;;;;;6.90;4.25;;;563.40;2406.40;;;;;;6305408;22;20375;-59
2021/09/01 07:22:56;;;;;;;7.78;4.78;;;563.40;2380.80;;;;;;6303260;22;19999;-59
2021/09/01 07:25:22;;;;;;;4.90;3.92;;;563.40;2380.80;;;;;;6305846;22;20023;-59
2021/09/01 07:27:47;;;;;;;6.18;4.30;;;563.60;2329.60;;;;;;6306289;22;20072;-60
2021/09/01 07:30:13;;;;;;;9.23;4.32;;;563.80;2304.00;;;;;;6305410;22;19999;-59
2021/09/01 07:32:39;;;;;;;5.68;4.50;;;563.70;2304.00;;;;;;6306030;22;20306;-59
2021/09/01 07:35:06;;;;;;;6.00;4.45;;;564.00;2278.40;;;;;;6305210;22;20387;-60
2021/09/01 07:37:31;;;;;;;6.60;4.30;;;564.10;2278.40;;;;;;6305040;22;19999;-59
2021/09/01 07:39:57;;;;;;;6.78;4.18;;;564.10;2278.40;;;;;;6305201;22;20042;-60
2021/09/01 07:42:23;;;;;;;7.15;4.38;;;563.90;2227.20;;;;;;6306054;22;20004;-59
2021/09/01 07:44:49;;;;;;;5.47;4.20;;;563.90;2201.60;;;;;;6305938;22;19999;-59
2021/09/01 07:47:15;;;;;;;6.35;4.38;;;563.90;2176.00;;;;;;6277025;22;20007;-59
2021/09/01 07:49:41;;;;;;;6.78;4.05;;;564.00;2150.40;;;;;;6306137;22;20042;-59
2021/09/01 07:52:08;;;;;;;5.70;4.22;;;564.00;2176.00;;;;;;6303997;22;20003;-59
2021/09/01 07:54:34;;;;;;;7.57;4.38;;;588.80;2150.40;;;;;;6305699;22;20004;-59
2021/09/01 07:57:00;;;;;;;6.40;4.10;;;588.80;2124.80;;;;;;6304952;22;20049;-59
2021/09/01 07:59:26;;;;;;;6.68;4.28;;;564.10;2124.80;;;;;;6305964;22;20075;-60
2021/09/01 08:01:52;;;;;;;7.45;4.32;;;588.90;2124.80;;;;;;6305848;22;20485;-60
2021/09/01 08:04:18;;;;;;;5.97;4.05;;;588.90;2073.60;;;;;;6301298;22;20003;-59
2021/09/01 08:06:44;;;;;;;6.07;3.95;;;589.10;2099.20;;;;;;6304905;22;20003;-59
2021/09/01 08:09:09;;;;;;;7.53;4.05;;;589.30;2048.00;;;;;;6297135;22;20003;-60
2021/09/01 08:11:35;;;;;;;6.72;4.20;;;589.50;2048.00;;;;;;6305713;22;19999;-60
2021/09/01 08:14:01;;;;;;;6.20;4.15;;;589.60;2022.40;;;;;;6299981;22;20591;-60
2021/09/01 08:16:27;;;;;;;7.60;4.10;;;614.40;1996.80;;;;;;6303902;22;20006;-60
2021/09/01 08:18:54;;;;;;;5.85;4.18;;;614.60;1971.20;;;;;;6305366;22;20018;-60
2021/09/01 08:21:20;;;;;;;6.43;4.38;;;614.50;1945.60;;;;;;6277249;22;20015;-60
2021/09/01 08:23:48;;;;;;;6.45;3.70;;;614.80;1971.20;;;;;;6305135;22;20010;-60
2021/09/01 08:26:14;;;;;;;7.18;4.28;;;615.00;1868.80;;;;;;6304232;22;20068;-61
2021/09/01 08:28:40;;;;;;;5.95;3.67;;;615.10;1868.80;;;;;;6278129;22;20035;-60
2021/09/01 08:31:06;;;;;;;5.72;3.65;;;615.20;1843.20;;;;;;6304453;22;20070;-60
2021/09/01 08:33:32;;;;;;;4.78;3.50;;;615.30;1817.60;;;;;;6305680;22;20003;-60
2021/09/01 08:35:57;;;;;;;5.30;4.03;;;614.70;1792.00;;;;;;6303601;22;19999;-60
2021/09/01 08:38:23;;;;;;;5.88;4.32;;;615.30;1817.60;;;;;;6305768;22;19999;-60
2021/09/01 08:40:49;;;;;;;6.35;4.07;;;615.30;1766.40;;;;;;6304428;22;20378;-59
2021/09/01 08:43:19;;;;;;;7.40;4.32;;;640.10;1766.40;;;;;;6304455;22;20010;-59
2021/09/01 08:45:46;;;;;;;5.90;4.00;;;640.10;1740.80;;;;;;6305618;22;20033;-59
2021/09/01 08:48:14;;;;;;;7.40;4.28;;;640.10;1715.20;;;;;;6299863;22;20007;-59
2021/09/01 08:50:41;;;;;;;5.82;4.00;;;640.10;1715.20;;;;;;6277274;22;20393;-60
2021/09/01 08:53:06;;;;;;;5.53;4.13;;;640.10;1740.80;;;;;;6303953;22;20022;-59
2021/09/01 08:55:32;;;;;;;7.03;3.92;;;640.50;1689.60;;;;;;6305295;22;20425;-59
2021/09/01 08:57:58;;;;;;;6.20;4.10;;;640.50;1689.60;;;;;;6304180;22;19996;-59
2021/09/01 09:00:24;;;;;;;8.07;3.97;;;640.80;1689.60;;;;;;6305337;22;20018;-59
2021/09/01 09:02:57;;;;;;;8.13;4.10;;;640.90;1664.00;;;;;;6305660;22;20031;-60
2021/09/01 09:05:37;;;;;;;9.70;4.30;;;665.60;1638.40;;;;;;6304832;22;20026;-60
2021/09/01 09:08:13;;;;;;;6.70;3.83;;;665.70;1664.00;;;;;;6303662;22;20078;-58
2021/09/01 09:10:41;;;;;;;4.90;3.70;;;665.80;1587.20;;;;;;6305183;22;20078;-59
2021/09/01 09:13:08;;;;;;;6.53;3.80;;;665.90;1587.20;;;;;;6303994;22;19995;-60
2021/09/01 09:15:35;;;;;;;7.10;4.00;;;666.00;1561.60;;;;;;6305827;22;20007;-59
2021/09/01 09:18:02;;;;;;;7.13;4.13;;;666.10;1561.60;;;;;;6304369;22;19996;-59
2021/09/01 09:20:33;;;;;;;8.00;4.25;;;666.50;1536.00;;;;;;6304673;22;20015;-59
2021/09/01 09:23:05;;;;;;;8.93;4.45;;;666.50;1510.40;;;;;;6303786;22;20133;-59
2021/09/01 09:25:33;;;;;;;8.10;4.30;;;691.30;1510.40;;;;;;6305391;22;20422;-59
2021/09/01 09:28:00;;;;;;;7.15;3.88;;;691.40;1484.80;;;;;;6303999;22;20078;-59
2021/09/01 09:30:26;;;;;;;5.80;4.20;;;691.80;1408.00;;;;;;6305114;22;20003;-59
2021/09/01 09:33:01;;;;;;;6.63;4.50;;;716.90;1459.20;;;;;;6304569;22;20010;-60
2021/09/01 09:35:28;;;;;;;;;;;717.30;1382.40;;;;;;6305169;22;20030;-60
2021/09/01 09:38:05;;;;;;;6.60;3.70;;;742.70;1305.60;;;;;;6304536;22;19955;-60
2021/09/01 09:40:32;;;;;;;7.22;4.00;;;768.00;1280.00;;;;;;6305625;22;20007;-59
2021/09/01 09:43:12;;;;;;;5.32;3.72;;;793.80;1203.20;;;;;;6305836;22;20064;-58
2021/09/01 09:45:38;;;;;;;5.22;3.88;;;819.40;1100.80;;;;;;6307180;22;20003;-62
2021/09/01 09:48:04;;;;;;;6.20;3.78;;;819.50;1126.40;;;;;;6305650;22;20009;-58
2021/09/01 09:50:30;;;;;;;6.32;3.67;;;844.80;1049.60;;;;;;6306401;22;20422;-58
2021/09/01 09:52:57;;;;;;;4.70;4.00;;;870.60;998.40;;;;;;6303381;22;20045;-59
2021/09/01 09:55:23;;;;;;;7.22;4.07;;;896.10;896.00;;;;;;6279128;22;20003;-57
2021/09/01 09:57:56;;;;;;;5.53;3.75;;;896.80;870.40;;;;;;6306830;22;20006;-58
2021/09/01 10:00:24;;;;;;;4.00;3.40;;;922.20;870.40;;;;;;6306135;22;20136;-57
2021/09/01 10:02:49;;;;;;;5.65;3.75;;;947.30;819.20;;;;;;6306659;22;20000;-57
2021/09/01 10:05:19;;;;;;;4.68;3.58;;;947.50;819.20;;;;;;6305411;22;20083;-58
2021/09/01 10:07:47;;;;;;;6.63;3.65;;;972.90;768.00;;;;;;6278574;22;20426;-57
2021/09/01 10:10:13;;;;;;;4.95;3.70;;;973.20;742.40;;;;;;6305359;22;20098;-59
2021/09/01 10:12:41;;;;;;;5.32;3.50;;;973.60;716.80;;;;;;6306384;22;20093;-59
2021/09/01 10:15:12;;;;;;;4.65;3.50;;;998.90;716.80;;;;;;6306073;22;20372;-57
2021/09/01 10:17:43;;;;;;;3.72;3.10;;;1024.80;665.60;;;;;;6306573;22;20028;-60
2021/09/01 10:20:16;;;;;;;6.03;3.47;;;999.20;665.60;;;;;;6305068;22;20048;-59
2021/09/01 10:22:42;;;;;;;5.72;3.47;;;972.80;716.80;;;;;;6306939;22;20088;-57
2021/09/01 10:25:08;;;;;;;4.78;3.78;;;998.80;691.20;;;;;;6305881;22;19995;-58
2021/09/01 10:27:34;;;;;;;4.80;3.70;;;1024.50;640.00;;;;;;6306229;22;20014;-58
2021/09/01 10:30:11;;;;;;;6.97;3.88;;;1075.20;588.80;;;;;;6305815;22;20003;-58
2021/09/01 10:32:51;;;;;;;4.85;3.28;;;1075.60;588.80;;;;;;6306455;22;20445;-58
2021/09/01 10:35:17;;;;;;;6.38;3.38;;;1101.30;537.60;;;;;;6305224;22;20443;-58
2021/09/01 10:37:46;;;;;;;6.03;3.53;;;1101.60;512.00;;;;;;6306725;22;20075;-57
2021/09/01 10:40:21;;;;;;;5.72;3.72;;;1126.60;537.60;;;;;;6305223;22;20043;-58
2021/09/01 10:42:48;;;;;;;5.13;3.80;;;1152.60;486.40;;;;;;6278797;22;20010;-58
2021/09/01 10:45:40;;;;;;;3.95;3.42;;;1178.50;435.20;;;;;;6306008;22;20003;-58
2021/09/01 10:48:09;;;;;;;3.67;3.17;;;1203.30;435.20;;;;;;6304034;22;20033;-59
2021/09/01 10:50:49;;;;;;;5.75;3.13;;;1203.30;435.20;;;;;;6305821;22;20321;-58
2021/09/01 10:53:24;;;;;;;5.03;3.30;;;1127.20;486.40;;;;;;6304721;22;20014;-59
2021/09/01 10:55:57;;;;;;;5.22;3.20;;;1101.50;486.40;;;;;;6303342;22;20082;-58
2021/09/01 10:58:53;;;;;;;8.15;3.60;;;1075.50;537.60;;;;;;6308363;22;20011;-57
2021/09/01 11:01:23;;;;;;;5.10;3.35;;;1024.50;563.20;;;;;;6201244;23;20087;-57
2021/09/01 11:04:01;;;;;;;4.07;3.35;;;998.50;614.40;;;;;;6213939;23;20005;-58
2021/09/01 11:06:33;;;;;;;5.18;3.60;;;973.60;614.40;;;;;;6213440;23;20015;-57
2021/09/01 11:09:03;;;;;;;5.57;3.30;;;999.20;588.80;;;;;;6214006;23;20011;-58
2021/09/01 11:11:41;;;;;;;5.55;3.45;;;973.60;614.40;;;;;;6213988;22;20009;-59
2021/09/01 11:14:08;;;;;;;8.18;3.55;;;948.00;614.40;;;;;;6214111;23;20059;-58
2021/09/01 11:16:34;;;;;;;4.55;3.30;;;921.70;691.20;;;;;;6214225;23;20423;-58
2021/09/01 11:19:08;;;;;;;4.75;3.33;;;896.60;691.20;;;;;;6189285;23;20059;-57
2021/09/01 11:21:39;;;;;;;;;;;896.70;716.80;;;;;;6214890;23;20054;-58
2021/09/01 11:24:09;;;;;;;5.85;3.90;;;922.30;691.20;;;;;;6214036;23;19899;-58
2021/09/01 11:26:34;;;;;;;4.97;3.88;;;998.60;640.00;;;;;;6214015;23;20001;-58
2021/09/01 11:29:04;;;;;;;5.18;3.63;;;1024.00;588.80;;;;;;6213006;23;20004;-57
2021/09/01 11:31:31;;;;;;;7.88;3.25;;;973.10;614.40;;;;;;6212629;23;20087;-58
2021/09/01 11:33:58;;;;;;;5.10;3.50;;;947.50;640.00;;;;;;6212337;23;20048;-57
2021/09/01 11:36:29;;;;;;;5.95;3.70;;;922.40;640.00;;;;;;6212471;23;20011;-57
2021/09/01 11:38:59;;;;;;;4.53;3.65;;;922.20;665.60;;;;;;6302805;22;19999;-58
2021/09/01 11:41:26;;;;;;;6.70;3.65;;;947.30;640.00;;;;;;6308152;22;20034;-58
2021/09/01 11:43:59;;;;;;;7.18;3.85;;;1024.20;563.20;;;;;;6308553;22;20002;-60
2021/09/01 11:46:26;;;;;;;;;;;1075.80;486.40;;;;;;6308842;22;19995;-60
2021/09/01 11:48:52;;;;;;;4.10;3.70;;;1126.60;460.80;;;;;;6308325;22;19899;-59
2021/09/01 11:51:22;;;;;;;5.90;3.83;;;1152.50;409.60;;;;;;6308382;22;20045;-60
2021/09/01 11:53:48;;;;;;;4.93;3.33;;;1178.50;409.60;;;;;;6308538;22;20003;-59
2021/09/01 11:56:14;;;;;;;6.18;3.80;;;1203.30;435.20;;;;;;6308144;22;20321;-62
2021/09/01 11:58:40;;;;;;;4.60;3.40;;;1203.60;435.20;;;;;;6307890;22;19999;-60
2021/09/01 12:01:10;;;;;;;9.35;4.28;;;1203.70;435.20;;;;;;6307998;22;20086;-60
2021/09/01 12:03:36;;;;;;;3.75;3.35;;;1203.70;435.20;;;;;;6307973;22;19995;-62
2021/09/01 12:06:06;;;;;;;5.65;4.63;;;1229.10;460.80;;;;;;6308108;22;20011;-59
2021/09/01 12:08:41;;;;;;;6.32;4.10;;;1229.20;460.80;;;;;;6308097;22;20003;-60
2021/09/01 12:11:07;;;;;;;5.88;4.10;;;1204.10;435.20;;;;;;6307805;22;20010;-61
2021/09/01 12:13:47;;;;;;;4.88;3.70;;;1229.10;460.80;;;;;;6308233;22;20007;-59
2021/09/01 12:16:14;;;;;;;5.68;4.15;;;1228.80;460.80;;;;;;6308075;22;20010;-59
2021/09/01 12:18:55;;;;;;;4.32;3.22;;;1229.10;460.80;;;;;;6308179;22;20026;-60
2021/09/01 12:21:23;;;;;;;5.60;3.45;;;1126.90;435.20;;;;;;6307984;22;20011;-61
2021/09/01 12:24:08;;;;;;;4.07;3.40;;;1075.20;486.40;;;;;;6308369;22;19995;-59